Bearskin Lake, Canada
Current Conditions -  °F | °C
As of 4:00 AM on Thursday 18 Dec 2014 (Local Time) from CYTL Reporting Station
Clear Clear  
Wind Chill: -12°   Ceiling: Unl
Heat Index: -2°   Visibility: 9mi
Dew Point: -4°   Wind: 5mph
Humidity: 92%   Direction: 240°WSW
Pressure: 30.24"   Gusts: NA
Location:  53.93°N, 90.98°W
Report Text: CYTL 181000Z AUTO 24004KT 9SM CLR M19/M20 A3024 RMK SLP268
Loading
Personal Weather Stations






























Interactive Weather Map New forecast layout! Learn more

10-Day Weather Forecast

Advertisements
Track Severe Weather on mobile